createdAt,value
2019-03-13T00:01:45.392Z,77.83
2019-03-13T00:06:47.019Z,78.00
2019-03-13T00:11:50.508Z,78.27
2019-03-13T00:16:52.124Z,78.18
2019-03-13T00:21:53.794Z,77.81
2019-03-13T00:26:55.424Z,77.78
2019-03-13T00:31:59.531Z,78.02
2019-03-13T00:37:00.649Z,78.59
2019-03-13T00:42:02.229Z,79.13
2019-03-13T00:47:03.923Z,79.34
2019-03-13T00:52:05.572Z,79.38
2019-03-13T00:57:07.163Z,79.72
2019-03-13T01:02:08.822Z,79.77
2019-03-13T01:07:10.466Z,79.89
2019-03-13T01:12:12.072Z,79.94
2019-03-13T01:17:13.762Z,79.92
2019-03-13T01:22:15.356Z,80.00
2019-03-13T01:27:17.011Z,79.87
2019-03-13T01:32:18.816Z,79.96
2019-03-13T01:37:20.421Z,79.97
2019-03-13T01:42:22.083Z,79.70
2019-03-13T01:47:23.739Z,79.51
2019-03-13T01:52:25.363Z,79.26
2019-03-13T01:57:26.966Z,79.56
2019-03-13T02:02:28.681Z,79.34
2019-03-13T02:07:30.389Z,79.28
2019-03-13T02:12:32.068Z,79.04
2019-03-13T02:17:33.649Z,78.78
2019-03-13T02:22:35.233Z,78.27
2019-03-13T02:27:37.964Z,77.57
2019-03-13T02:32:39.633Z,77.15
2019-03-13T02:37:41.228Z,77.08
2019-03-13T02:42:42.904Z,77.30
2019-03-13T02:47:44.437Z,77.57
2019-03-13T02:52:46.166Z,77.79
2019-03-13T02:57:47.750Z,77.76
2019-03-13T03:02:49.314Z,77.78
2019-03-13T03:07:50.915Z,77.60
2019-03-13T03:12:52.561Z,77.84
2019-03-13T03:17:54.245Z,77.81
2019-03-13T03:22:55.810Z,77.75
2019-03-13T03:27:57.389Z,77.79
2019-03-13T03:32:59.101Z,77.72
2019-03-13T03:38:00.657Z,77.47
2019-03-13T03:43:02.267Z,77.63
2019-03-13T03:48:03.858Z,77.50
2019-03-13T03:53:05.444Z,77.05
2019-03-13T03:58:07.047Z,76.69
2019-03-13T04:03:08.646Z,76.42
2019-03-13T04:08:10.338Z,75.79
2019-03-13T04:13:11.942Z,75.62
2019-03-13T04:18:13.621Z,75.49
2019-03-13T04:23:15.240Z,75.31
2019-03-13T04:28:16.835Z,75.14
2019-03-13T04:33:18.455Z,75.29
2019-03-13T04:38:20.104Z,75.17
2019-03-13T04:43:21.652Z,75.13
2019-03-13T04:48:23.297Z,75.54
2019-03-13T04:53:24.863Z,75.55
2019-03-13T04:58:26.560Z,75.33
2019-03-13T05:03:28.219Z,75.29
2019-03-13T05:09:08.268Z,75.28
2019-03-13T05:14:09.816Z,75.05
2019-03-13T05:19:11.416Z,75.18
2019-03-13T05:24:13.048Z,75.15
2019-03-13T05:29:14.682Z,75.05
2019-03-13T05:34:16.278Z,75.08
2019-03-13T05:39:17.867Z,75.13
2019-03-13T05:44:19.547Z,75.30
2019-03-13T05:49:21.182Z,75.16
2019-03-13T05:54:22.815Z,75.18
2019-03-13T05:59:24.442Z,75.09
2019-03-13T06:04:26.181Z,75.46
2019-03-13T06:09:28.166Z,74.88
2019-03-13T06:14:29.830Z,75.13
2019-03-13T06:19:31.412Z,75.02
2019-03-13T06:24:33.042Z,75.98
2019-03-13T06:29:34.713Z,75.57
2019-03-13T06:34:36.426Z,75.84
2019-03-13T06:39:38.023Z,75.98
2019-03-13T06:44:40.738Z,75.84
2019-03-13T06:49:42.376Z,75.99
2019-03-13T06:54:45.142Z,75.93
2019-03-13T06:59:46.744Z,75.76
2019-03-13T07:04:48.379Z,76.54
2019-03-13T07:09:50.187Z,76.58
2019-03-13T07:14:51.834Z,76.32
2019-03-13T07:19:53.535Z,76.11
2019-03-13T07:24:55.282Z,76.10
2019-03-13T07:29:57.013Z,76.03
2019-03-13T07:34:58.600Z,75.92
2019-03-13T07:40:00.391Z,75.87
2019-03-13T07:45:02.411Z,76.26
2019-03-13T07:50:04.260Z,76.36
2019-03-13T07:55:05.851Z,76.69
2019-03-13T08:00:08.685Z,76.99
2019-03-13T08:05:16.632Z,76.97
2019-03-13T08:10:18.268Z,77.25
2019-03-13T08:15:19.916Z,78.12
2019-03-13T08:20:21.662Z,77.99
2019-03-13T08:25:23.259Z,77.84
2019-03-13T08:30:24.953Z,78.08
2019-03-13T08:35:26.649Z,77.60
2019-03-13T08:40:28.323Z,77.04
2019-03-13T08:45:30.168Z,76.25
2019-03-13T08:50:31.953Z,76.27
2019-03-13T08:55:35.297Z,75.83
2019-03-13T09:00:40.063Z,75.46
2019-03-13T09:05:41.730Z,75.82
2019-03-13T09:10:43.304Z,75.75
2019-03-13T09:15:44.939Z,75.49
2019-03-13T09:20:46.527Z,75.18
2019-03-13T09:25:48.172Z,75.16
2019-03-13T09:30:49.779Z,75.36
2019-03-13T09:35:51.445Z,75.12
2019-03-13T09:40:53.081Z,75.01
2019-03-13T09:45:54.699Z,74.36
2019-03-13T09:50:56.309Z,74.27
2019-03-13T09:55:57.874Z,74.75
2019-03-13T10:00:59.526Z,75.45
2019-03-13T10:06:01.178Z,75.24
2019-03-13T10:11:03.842Z,76.50
2019-03-13T10:16:05.443Z,77.14
2019-03-13T10:21:07.032Z,77.12
2019-03-13T10:26:08.634Z,77.70
2019-03-13T10:31:10.381Z,78.47
2019-03-13T10:36:12.007Z,78.77
2019-03-13T10:41:13.678Z,79.51
2019-03-13T10:46:15.334Z,79.71
2019-03-13T10:51:16.931Z,79.73
2019-03-13T10:56:19.654Z,79.04
2019-03-13T11:01:21.996Z,79.62
2019-03-13T11:06:23.711Z,79.43
2019-03-13T11:11:25.381Z,79.64
2019-03-13T11:16:27.094Z,79.71
2019-03-13T11:21:28.704Z,79.82
2019-03-13T11:26:30.849Z,80.23
2019-03-13T11:31:32.548Z,80.08
2019-03-13T11:36:35.191Z,79.48
2019-03-13T11:41:37.767Z,79.33
2019-03-13T11:46:39.493Z,79.03
2019-03-13T11:51:41.164Z,79.28
2019-03-13T11:56:42.840Z,79.46
2019-03-13T12:01:45.909Z,79.57
2019-03-13T12:06:48.109Z,79.44
2019-03-13T12:11:49.672Z,80.01
2019-03-13T12:16:51.259Z,79.67
2019-03-13T12:21:52.892Z,79.39
2019-03-13T12:26:54.513Z,80.67
2019-03-13T12:31:56.215Z,80.59
2019-03-13T12:36:57.868Z,80.53
2019-03-13T12:41:59.571Z,80.55
2019-03-13T12:47:01.309Z,79.77
2019-03-13T12:52:04.263Z,79.55
2019-03-13T12:57:05.773Z,79.40
2019-03-13T13:02:07.393Z,78.19
2019-03-13T13:07:09.020Z,79.58
2019-03-13T13:12:10.827Z,78.83
2019-03-13T13:17:12.566Z,80.02
2019-03-13T13:22:14.205Z,80.58
2019-03-13T13:27:15.821Z,79.69
2019-03-13T13:32:17.484Z,80.43
2019-03-13T13:37:19.193Z,79.77
2019-03-13T13:42:20.915Z,78.58
2019-03-13T13:47:22.512Z,78.82
2019-03-13T13:52:25.144Z,79.61
2019-03-13T13:57:26.709Z,79.50
2019-03-13T14:02:28.341Z,79.88
2019-03-13T14:07:29.878Z,79.19
2019-03-13T14:12:31.377Z,76.12
2019-03-13T14:17:33.052Z,78.00
2019-03-13T14:22:34.622Z,75.09
2019-03-13T14:27:36.335Z,76.32
2019-03-13T14:32:37.944Z,77.97
2019-03-13T14:37:39.523Z,76.01
2019-03-13T14:42:41.137Z,77.28
2019-03-13T14:47:42.698Z,76.87
2019-03-13T14:52:44.375Z,72.30
2019-03-13T14:57:46.096Z,73.61
2019-03-13T15:02:50.031Z,72.64
2019-03-13T15:07:51.917Z,69.57
2019-03-13T15:12:53.494Z,71.06
2019-03-13T15:17:55.155Z,69.58
2019-03-13T15:22:56.793Z,70.97
2019-03-13T15:28:01.022Z,69.10
2019-03-13T15:33:02.615Z,67.69
2019-03-13T15:38:04.450Z,68.28
2019-03-13T15:43:06.146Z,66.60
2019-03-13T15:48:07.891Z,72.78
2019-03-13T15:53:09.958Z,75.52
2019-03-13T15:58:11.917Z,78.76
2019-03-13T16:03:13.579Z,78.10
2019-03-13T16:08:15.165Z,77.17
2019-03-13T16:13:16.994Z,75.22
2019-03-13T16:18:18.623Z,75.83
2019-03-13T16:23:22.858Z,75.18
2019-03-13T16:28:34.875Z,75.00
2019-03-13T16:33:36.472Z,76.43
2019-03-13T16:38:38.113Z,76.15
2019-03-13T16:43:42.889Z,76.68
2019-03-13T16:48:44.470Z,77.05
2019-03-13T16:53:46.075Z,76.32
2019-03-13T16:58:48.559Z,76.06
2019-03-13T17:03:52.812Z,75.90
2019-03-13T17:08:54.611Z,74.71
2019-03-13T17:13:59.580Z,74.83
2019-03-13T17:19:03.448Z,75.42
2019-03-13T17:24:05.002Z,76.14
2019-03-13T17:29:07.055Z,71.82
2019-03-13T17:34:08.705Z,69.32
2019-03-13T17:39:10.267Z,73.63
2019-03-13T17:44:11.867Z,72.79
2019-03-13T17:49:13.559Z,73.01
2019-03-13T17:54:15.133Z,72.86
2019-03-13T17:59:16.827Z,74.13
2019-03-13T18:04:18.588Z,74.53
2019-03-13T18:09:20.167Z,75.33
2019-03-13T18:14:21.805Z,75.49
2019-03-13T18:19:23.596Z,75.80
2019-03-13T18:24:27.650Z,76.90
2019-03-13T18:29:29.248Z,76.85
2019-03-13T18:34:30.815Z,78.18
2019-03-13T18:39:32.426Z,77.74
2019-03-13T18:44:34.004Z,78.00
2019-03-13T18:49:35.696Z,78.01
2019-03-13T18:54:37.375Z,77.66
2019-03-13T18:59:38.938Z,76.92
2019-03-13T19:04:40.672Z,77.42
2019-03-13T19:09:42.243Z,78.15
2019-03-13T19:14:43.937Z,77.98
2019-03-13T19:19:45.557Z,78.15
2019-03-13T19:24:47.100Z,77.70
2019-03-13T19:29:48.663Z,78.47
2019-03-13T19:34:50.270Z,74.52
2019-03-13T19:39:52.864Z,74.89
2019-03-13T19:44:54.538Z,75.55
2019-03-13T19:49:56.113Z,74.79
2019-03-13T19:54:57.691Z,75.08
2019-03-13T19:59:59.285Z,75.46
2019-03-13T20:05:00.905Z,74.61
2019-03-13T20:10:03.032Z,75.91
2019-03-13T20:15:05.741Z,76.75
2019-03-13T20:20:09.643Z,75.17
2019-03-13T20:25:11.460Z,75.00
2019-03-13T20:30:14.903Z,75.45
2019-03-13T20:35:16.551Z,75.49
2019-03-13T20:40:18.571Z,72.84
2019-03-13T20:45:20.836Z,72.18
2019-03-13T20:50:35.133Z,74.39
2019-03-13T20:55:26.251Z,74.69
2019-03-13T21:00:28.210Z,74.26
2019-03-13T21:05:30.947Z,75.29
2019-03-13T21:10:32.475Z,75.82
2019-03-13T21:15:34.253Z,76.47
2019-03-13T21:20:36.037Z,76.62
2019-03-13T21:25:37.970Z,76.83
2019-03-13T21:30:39.802Z,77.14
2019-03-13T21:35:41.422Z,77.45
2019-03-13T21:40:43.032Z,77.14
2019-03-13T21:45:44.660Z,77.15
2019-03-13T21:50:46.226Z,77.47
2019-03-13T21:55:47.833Z,77.12
2019-03-13T22:00:49.550Z,76.75
2019-03-13T22:05:51.225Z,76.15
2019-03-13T22:10:52.849Z,75.40
2019-03-13T22:15:54.444Z,75.06
2019-03-13T22:20:56.049Z,74.57
2019-03-13T22:25:58.125Z,74.74
2019-03-13T22:31:02.617Z,73.31
2019-03-13T22:36:03.517Z,73.10
2019-03-13T22:41:05.283Z,73.25
2019-03-13T22:46:06.937Z,74.01
2019-03-13T22:51:08.545Z,73.62
2019-03-13T22:56:10.118Z,73.56
2019-03-13T23:01:11.843Z,73.63
2019-03-13T23:06:13.401Z,72.42
2019-03-13T23:11:14.981Z,73.05
2019-03-13T23:16:16.607Z,72.10
2019-03-13T23:21:18.202Z,72.92
2019-03-13T23:26:19.746Z,73.92
2019-03-13T23:31:21.600Z,72.67
2019-03-13T23:36:23.198Z,73.93
2019-03-13T23:41:24.955Z,74.06
2019-03-13T23:46:27.327Z,74.25
2019-03-13T23:51:30.215Z,73.86
2019-03-13T23:56:31.776Z,73.74
